sensor_id;sensor_type;location;lat;lon;timestamp;pressure;altitude;pressure_sealevel;temperature;humidity
62126;BME280;48112;53.282;6.150;2023-02-28T00:00:19;103414.28;;;13.90;50.19
62126;BME280;48112;53.282;6.150;2023-02-28T00:01:23;103417.78;;;13.91;50.18
62126;BME280;48112;53.282;6.150;2023-02-28T00:02:26;103412.38;;;13.91;50.22
62126;BME280;48112;53.282;6.150;2023-02-28T00:03:28;103412.66;;;13.89;50.44
62126;BME280;48112;53.282;6.150;2023-02-28T00:04:31;103408.03;;;13.90;50.20
62126;BME280;48112;53.282;6.150;2023-02-28T00:05:32;103408.88;;;13.90;50.67
62126;BME280;48112;53.282;6.150;2023-02-28T00:06:35;103403.44;;;13.90;50.39
62126;BME280;48112;53.282;6.150;2023-02-28T00:07:37;103408.88;;;13.90;50.70
62126;BME280;48112;53.282;6.150;2023-02-28T00:08:40;103401.50;;;13.91;50.13
62126;BME280;48112;53.282;6.150;2023-02-28T00:09:43;103398.78;;;13.91;50.17
62126;BME280;48112;53.282;6.150;2023-02-28T00:10:44;103401.81;;;13.89;50.33
62126;BME280;48112;53.282;6.150;2023-02-28T00:11:47;103397.19;;;13.90;50.64
62126;BME280;48112;53.282;6.150;2023-02-28T00:12:50;103401.50;;;13.91;50.20
62126;BME280;48112;53.282;6.150;2023-02-28T00:13:55;103393.66;;;13.89;50.27
62126;BME280;48112;53.282;6.150;2023-02-28T00:14:57;103397.19;;;13.90;50.52
62126;BME280;48112;53.282;6.150;2023-02-28T00:16:00;103408.88;;;13.90;50.05
62126;BME280;48112;53.282;6.150;2023-02-28T00:17:04;103399.91;;;13.90;50.64
62126;BME280;48112;53.282;6.150;2023-02-28T00:18:06;103398.00;;;13.90;50.24
62126;BME280;48112;53.282;6.150;2023-02-28T00:19:08;103398.00;;;13.90;50.42
62126;BME280;48112;53.282;6.150;2023-02-28T00:20:11;103394.47;;;13.90;50.58
62126;BME280;48112;53.282;6.150;2023-02-28T00:21:14;103401.00;;;13.89;50.31
62126;BME280;48112;53.282;6.150;2023-02-28T00:22:17;103398.31;;;13.89;50.29
62126;BME280;48112;53.282;6.150;2023-02-28T00:23:19;103400.72;;;13.90;50.32
62126;BME280;48112;53.282;6.150;2023-02-28T00:24:22;103402.63;;;13.90;50.59
62126;BME280;48112;53.282;6.150;2023-02-28T00:25:24;103397.19;;;13.90;50.60
62126;BME280;48112;53.282;6.150;2023-02-28T00:26:27;103410.75;;;13.90;50.44
62126;BME280;48112;53.282;6.150;2023-02-28T00:27:29;103403.44;;;13.90;50.34
62126;BME280;48112;53.282;6.150;2023-02-28T00:28:31;103399.91;;;13.90;50.32
62126;BME280;48112;53.282;6.150;2023-02-28T00:29:33;103397.19;;;13.90;50.61
62126;BME280;48112;53.282;6.150;2023-02-28T00:30:37;103394.47;;;13.90;50.61
62126;BME280;48112;53.282;6.150;2023-02-28T00:31:42;103409.94;;;13.89;50.24
62126;BME280;48112;53.282;6.150;2023-02-28T00:32:46;103399.91;;;13.90;50.80
62126;BME280;48112;53.282;6.150;2023-02-28T00:33:48;103405.34;;;13.90;50.14
62126;BME280;48112;53.282;6.150;2023-02-28T00:34:52;103412.38;;;13.91;50.61
62126;BME280;48112;53.282;6.150;2023-02-28T00:36:00;103399.09;;;13.89;50.63
62126;BME280;48112;53.282;6.150;2023-02-28T00:37:04;103408.03;;;13.90;50.79
62126;BME280;48112;53.282;6.150;2023-02-28T00:38:07;103404.50;;;13.89;50.12
62126;BME280;48112;53.282;6.150;2023-02-28T00:39:09;103402.63;;;13.90;50.46
62126;BME280;48112;53.282;6.150;2023-02-28T00:40:11;103409.16;;;13.89;50.33
62126;BME280;48112;53.282;6.150;2023-02-28T00:41:14;103409.94;;;13.89;50.25
62126;BME280;48112;53.282;6.150;2023-02-28T00:42:16;103405.34;;;13.90;50.56
62126;BME280;48112;53.282;6.150;2023-02-28T00:43:21;103406.44;;;13.89;50.25
62126;BME280;48112;53.282;6.150;2023-02-28T00:44:23;103404.50;;;13.89;50.31
62126;BME280;48112;53.282;6.150;2023-02-28T00:45:27;103398.31;;;13.89;50.76
62126;BME280;48112;53.282;6.150;2023-02-28T00:46:28;103408.03;;;13.90;50.56
62126;BME280;48112;53.282;6.150;2023-02-28T00:47:32;103406.16;;;13.90;50.70
62126;BME280;48112;53.282;6.150;2023-02-28T00:48:35;103397.19;;;13.90;50.17
62126;BME280;48112;53.282;6.150;2023-02-28T00:49:38;103399.91;;;13.90;50.59
62126;BME280;48112;53.282;6.150;2023-02-28T00:50:39;103408.03;;;13.90;50.55
62126;BME280;48112;53.282;6.150;2023-02-28T00:51:42;103401.81;;;13.89;50.34
62126;BME280;48112;53.282;6.150;2023-02-28T00:52:44;103410.75;;;13.90;50.31
62126;BME280;48112;53.282;6.150;2023-02-28T00:53:48;103404.50;;;13.89;50.31
62126;BME280;48112;53.282;6.150;2023-02-28T00:54:50;103399.09;;;13.89;50.36
62126;BME280;48112;53.282;6.150;2023-02-28T00:55:53;103395.28;;;13.90;50.53
62126;BME280;48112;53.282;6.150;2023-02-28T00:56:55;103394.47;;;13.90;50.55
62126;BME280;48112;53.282;6.150;2023-02-28T00:57:59;103392.88;;;13.89;50.52
62126;BME280;48112;53.282;6.150;2023-02-28T00:59:01;103394.47;;;13.90;50.79
62126;BME280;48112;53.282;6.150;2023-02-28T01:00:04;103394.47;;;13.90;50.77
62126;BME280;48112;53.282;6.150;2023-02-28T01:01:06;103392.06;;;13.88;50.56
62126;BME280;48112;53.282;6.150;2023-02-28T01:02:09;103394.47;;;13.90;50.79
62126;BME280;48112;53.282;6.150;2023-02-28T01:03:10;103391.75;;;13.90;50.34
62126;BME280;48112;53.282;6.150;2023-02-28T01:04:15;103388.22;;;13.89;50.58
62126;BME280;48112;53.282;6.150;2023-02-28T01:05:17;103390.16;;;13.89;50.80
62126;BME280;48112;53.282;6.150;2023-02-28T01:06:19;103385.50;;;13.89;50.10
62126;BME280;48112;53.282;6.150;2023-02-28T01:07:22;103392.88;;;13.89;50.40
62126;BME280;48112;53.282;6.150;2023-02-28T01:08:24;103383.59;;;13.90;50.41
62126;BME280;48112;53.282;6.150;2023-02-28T01:09:27;103382.00;;;13.89;50.24
62126;BME280;48112;53.282;6.150;2023-02-28T01:10:30;103386.31;;;13.90;50.09
62126;BME280;48112;53.282;6.150;2023-02-28T01:11:33;103383.59;;;13.90;50.53
62126;BME280;48112;53.282;6.150;2023-02-28T01:12:35;103388.22;;;13.89;50.71
62126;BME280;48112;53.282;6.150;2023-02-28T01:13:37;103387.44;;;13.89;50.69
62126;BME280;48112;53.282;6.150;2023-02-28T01:14:40;103387.44;;;13.89;50.80
62126;BME280;48112;53.282;6.150;2023-02-28T01:15:42;103379.28;;;13.89;50.72
62126;BME280;48112;53.282;6.150;2023-02-28T01:16:46;103371.16;;;13.89;50.77
62126;BME280;48112;53.282;6.150;2023-02-28T01:17:47;103376.56;;;13.89;50.62
62126;BME280;48112;53.282;6.150;2023-02-28T01:18:50;103373.84;;;13.89;50.39
62126;BME280;48112;53.282;6.150;2023-02-28T01:19:57;103369.22;;;13.89;50.49
62126;BME280;48112;53.282;6.150;2023-02-28T01:21:02;103365.72;;;13.89;50.26
62126;BME280;48112;53.282;6.150;2023-02-28T01:22:05;103365.72;;;13.89;50.40
62126;BME280;48112;53.282;6.150;2023-02-28T01:23:08;103374.63;;;13.89;50.40
62126;BME280;48112;53.282;6.150;2023-02-28T01:24:10;103369.22;;;13.89;50.74
62126;BME280;48112;53.282;6.150;2023-02-28T01:25:13;103373.84;;;13.89;50.76
62126;BME280;48112;53.282;6.150;2023-02-28T01:26:15;103372.75;;;13.90;50.43
62126;BME280;48112;53.282;6.150;2023-02-28T01:27:18;103372.75;;;13.90;50.42
62126;BME280;48112;53.282;6.150;2023-02-28T01:28:20;103373.84;;;13.89;50.23
62126;BME280;48112;53.282;6.150;2023-02-28T01:29:24;103372.75;;;13.90;50.55
62126;BME280;48112;53.282;6.150;2023-02-28T01:30:26;103372.75;;;13.90;50.84
62126;BME280;48112;53.282;6.150;2023-02-28T01:31:29;103375.47;;;13.90;50.64
62126;BME280;48112;53.282;6.150;2023-02-28T01:32:31;103375.47;;;13.90;50.33
62126;BME280;48112;53.282;6.150;2023-02-28T01:33:34;103371.94;;;13.89;50.30
62126;BME280;48112;53.282;6.150;2023-02-28T01:34:36;103378.19;;;13.90;50.29
62126;BME280;48112;53.282;6.150;2023-02-28T01:35:40;103368.44;;;13.89;50.29
62126;BME280;48112;53.282;6.150;2023-02-28T01:36:42;103372.75;;;13.90;50.65
62126;BME280;48112;53.282;6.150;2023-02-28T01:37:45;103365.72;;;13.89;50.90
62126;BME280;48112;53.282;6.150;2023-02-28T01:38:47;103372.75;;;13.90;50.39
62126;BME280;48112;53.282;6.150;2023-02-28T01:39:50;103363.00;;;13.89;50.72
62126;BME280;48112;53.282;6.150;2023-02-28T01:40:54;103360.28;;;13.89;50.33
62126;BME280;48112;53.282;6.150;2023-02-28T01:41:57;103368.44;;;13.89;50.73
62126;BME280;48112;53.282;6.150;2023-02-28T01:42:58;103376.56;;;13.89;50.64
62126;BME280;48112;53.282;6.150;2023-02-28T01:44:03;103371.94;;;13.89;50.22
62126;BME280;48112;53.282;6.150;2023-02-28T01:45:07;103365.72;;;13.89;50.28
62126;BME280;48112;53.282;6.150;2023-02-28T01:46:16;103367.63;;;13.88;50.35
62126;BME280;48112;53.282;6.150;2023-02-28T01:47:18;103368.44;;;13.89;50.32
62126;BME280;48112;53.282;6.150;2023-02-28T01:48:24;103371.16;;;13.89;50.33
62126;BME280;48112;53.282;6.150;2023-02-28T01:49:27;103370.31;;;13.88;50.71
62126;BME280;48112;53.282;6.150;2023-02-28T01:50:31;103368.44;;;13.89;50.38
62126;BME280;48112;53.282;6.150;2023-02-28T01:51:39;103371.94;;;13.89;50.67
62126;BME280;48112;53.282;6.150;2023-02-28T01:52:47;103375.47;;;13.90;50.40
62126;BME280;48112;53.282;6.150;2023-02-28T01:53:51;103370.31;;;13.88;50.52
62126;BME280;48112;53.282;6.150;2023-02-28T01:54:55;103365.72;;;13.89;50.95
62126;BME280;48112;53.282;6.150;2023-02-28T01:55:58;103372.75;;;13.90;50.77
62126;BME280;48112;53.282;6.150;2023-02-28T01:57:01;103360.28;;;13.89;50.54
62126;BME280;48112;53.282;6.150;2023-02-28T01:58:06;103367.63;;;13.88;50.52
62126;BME280;48112;53.282;6.150;2023-02-28T01:59:11;103360.28;;;13.89;50.42
62126;BME280;48112;53.282;6.150;2023-02-28T02:00:15;103361.38;;;13.88;50.79
62126;BME280;48112;53.282;6.150;2023-02-28T02:01:20;103355.94;;;13.88;50.42
62126;BME280;48112;53.282;6.150;2023-02-28T02:02:23;103364.09;;;13.88;50.52
62126;BME280;48112;53.282;6.150;2023-02-28T02:03:26;103360.28;;;13.89;50.79
62126;BME280;48112;53.282;6.150;2023-02-28T02:04:31;103349.41;;;13.89;50.38
62126;BME280;48112;53.282;6.150;2023-02-28T02:05:35;103352.91;;;13.89;50.79
62126;BME280;48112;53.282;6.150;2023-02-28T02:06:40;103356.75;;;13.88;50.51
62126;BME280;48112;53.282;6.150;2023-02-28T02:07:45;103342.34;;;13.88;50.36
62126;BME280;48112;53.282;6.150;2023-02-28T02:08:47;103349.41;;;13.89;50.60
62126;BME280;48112;53.282;6.150;2023-02-28T02:09:56;103347.78;;;13.88;50.68
62126;BME280;48112;53.282;6.150;2023-02-28T02:11:00;103353.22;;;13.88;50.62
62126;BME280;48112;53.282;6.150;2023-02-28T02:12:06;103347.78;;;13.88;50.86
62126;BME280;48112;53.282;6.150;2023-02-28T02:13:19;103350.50;;;13.88;50.57
62126;BME280;48112;53.282;6.150;2023-02-28T02:14:33;103349.72;;;13.87;50.72
62126;BME280;48112;53.282;6.150;2023-02-28T02:15:39;103344.00;;;13.89;50.52
62126;BME280;48112;53.282;6.150;2023-02-28T02:16:47;103345.88;;;13.88;50.44
62126;BME280;48112;53.282;6.150;2023-02-28T02:17:53;103348.59;;;13.88;50.50
62126;BME280;48112;53.282;6.150;2023-02-28T02:18:59;103347.78;;;13.88;50.46
62126;BME280;48112;53.282;6.150;2023-02-28T02:22:53;103345.06;;;13.88;50.35
62126;BME280;48112;53.282;6.150;2023-02-28T02:24:07;103337.75;;;13.88;51.03
62126;BME280;48112;53.282;6.150;2023-02-28T02:25:19;103343.16;;;13.88;50.92
62126;BME280;48112;53.282;6.150;2023-02-28T02:26:33;103350.19;;;13.89;50.52
62126;BME280;48112;53.282;6.150;2023-02-28T02:29:10;103334.22;;;13.88;50.55
62126;BME280;48112;53.282;6.150;2023-02-28T02:30:35;103339.63;;;13.88;50.61
62126;BME280;48112;53.282;6.150;2023-02-28T02:31:46;103337.75;;;13.88;50.29
62126;BME280;48112;53.282;6.150;2023-02-28T02:33:18;103336.94;;;13.88;50.61
62126;BME280;48112;53.282;6.150;2023-02-28T02:34:30;103342.34;;;13.88;50.42
62126;BME280;48112;53.282;6.150;2023-02-28T02:35:38;103335.03;;;13.88;50.89
62126;BME280;48112;53.282;6.150;2023-02-28T02:36:45;103334.22;;;13.88;50.36
62126;BME280;48112;53.282;6.150;2023-02-28T02:37:53;103326.06;;;13.88;50.33
62126;BME280;48112;53.282;6.150;2023-02-28T02:39:01;103327.69;;;13.89;50.98
62126;BME280;48112;53.282;6.150;2023-02-28T02:40:05;103332.31;;;13.88;50.52
62126;BME280;48112;53.282;6.150;2023-02-28T02:41:13;103335.03;;;13.88;50.43
62126;BME280;48112;53.282;6.150;2023-02-28T02:42:20;103331.50;;;13.88;50.56
62126;BME280;48112;53.282;6.150;2023-02-28T02:43:25;103326.88;;;13.88;50.53
62126;BME280;48112;53.282;6.150;2023-02-28T02:44:30;103331.50;;;13.88;50.62
62126;BME280;48112;53.282;6.150;2023-02-28T02:45:34;103329.59;;;13.88;50.60
62126;BME280;48112;53.282;6.150;2023-02-28T02:46:39;103326.06;;;13.88;50.83
62126;BME280;48112;53.282;6.150;2023-02-28T02:47:42;103317.91;;;13.88;50.40
62126;BME280;48112;53.282;6.150;2023-02-28T02:48:46;103324.16;;;13.88;50.88
62126;BME280;48112;53.282;6.150;2023-02-28T02:49:50;103326.06;;;13.88;50.71
62126;BME280;48112;53.282;6.150;2023-02-28T02:50:55;103326.88;;;13.88;50.77
62126;BME280;48112;53.282;6.150;2023-02-28T02:52:00;103330.41;;;13.89;50.88
62126;BME280;48112;53.282;6.150;2023-02-28T02:53:06;103328.78;;;13.88;50.66
62126;BME280;48112;53.282;6.150;2023-02-28T02:54:10;103328.78;;;13.88;50.52
62126;BME280;48112;53.282;6.150;2023-02-28T02:55:14;103326.88;;;13.88;50.77
62126;BME280;48112;53.282;6.150;2023-02-28T02:56:18;103324.97;;;13.89;50.79
62126;BME280;48112;53.282;6.150;2023-02-28T02:57:23;103320.63;;;13.88;50.94
62126;BME280;48112;53.282;6.150;2023-02-28T02:58:29;103321.44;;;13.88;50.35
62126;BME280;48112;53.282;6.150;2023-02-28T02:59:33;103333.13;;;13.89;50.53
62126;BME280;48112;53.282;6.150;2023-02-28T03:00:39;103327.69;;;13.89;50.99
62126;BME280;48112;53.282;6.150;2023-02-28T03:01:44;103325.28;;;13.87;50.45
62126;BME280;48112;53.282;6.150;2023-02-28T03:02:47;103322.25;;;13.89;50.39
62126;BME280;48112;53.282;6.150;2023-02-28T03:03:50;103332.31;;;13.88;50.62
62126;BME280;48112;53.282;6.150;2023-02-28T03:04:56;103326.06;;;13.88;50.43
62126;BME280;48112;53.282;6.150;2023-02-28T03:06:02;103333.13;;;13.89;50.57
62126;BME280;48112;53.282;6.150;2023-02-28T03:07:05;103338.56;;;13.89;50.60
62126;BME280;48112;53.282;6.150;2023-02-28T03:08:07;103332.31;;;13.88;50.42
62126;BME280;48112;53.282;6.150;2023-02-28T03:09:10;103327.69;;;13.89;50.54
62126;BME280;48112;53.282;6.150;2023-02-28T03:10:26;103328.78;;;13.88;50.53
62126;BME280;48112;53.282;6.150;2023-02-28T03:11:30;103326.88;;;13.88;50.83
62126;BME280;48112;53.282;6.150;2023-02-28T03:12:40;103336.94;;;13.88;50.92
62126;BME280;48112;53.282;6.150;2023-02-28T03:13:45;103329.59;;;13.88;50.46
62126;BME280;48112;53.282;6.150;2023-02-28T03:14:56;103326.06;;;13.88;51.13
62126;BME280;48112;53.282;6.150;2023-02-28T03:16:06;103329.59;;;13.88;51.13
62126;BME280;48112;53.282;6.150;2023-02-28T03:17:16;103326.06;;;13.88;50.93
62126;BME280;48112;53.282;6.150;2023-02-28T03:18:23;103327.69;;;13.89;50.61
62126;BME280;48112;53.282;6.150;2023-02-28T03:19:33;103322.25;;;13.89;50.45
62126;BME280;48112;53.282;6.150;2023-02-28T03:20:38;103322.56;;;13.87;50.65
62126;BME280;48112;53.282;6.150;2023-02-28T03:21:43;103323.34;;;13.88;50.67
62126;BME280;48112;53.282;6.150;2023-02-28T03:22:51;103317.91;;;13.88;50.93
62126;BME280;48112;53.282;6.150;2023-02-28T03:23:56;103315.19;;;13.88;50.92
62126;BME280;48112;53.282;6.150;2023-02-28T03:25:02;103309.00;;;13.87;51.16
62126;BME280;48112;53.282;6.150;2023-02-28T03:26:11;103312.47;;;13.88;50.51
62126;BME280;48112;53.282;6.150;2023-02-28T03:27:16;103309.78;;;13.88;50.55
62126;BME280;48112;53.282;6.150;2023-02-28T03:28:21;103309.78;;;13.88;50.93
62126;BME280;48112;53.282;6.150;2023-02-28T03:29:28;103309.78;;;13.88;51.03
62126;BME280;48112;53.282;6.150;2023-02-28T03:30:37;103298.91;;;13.88;51.05
62126;BME280;48112;53.282;6.150;2023-02-28T03:31:41;103298.13;;;13.87;50.85
62126;BME280;48112;53.282;6.150;2023-02-28T03:32:48;103304.34;;;13.88;50.56
62126;BME280;48112;53.282;6.150;2023-02-28T03:33:55;103309.78;;;13.88;50.46
62126;BME280;48112;53.282;6.150;2023-02-28T03:35:00;103309.78;;;13.88;50.54
62126;BME280;48112;53.282;6.150;2023-02-28T03:36:07;103311.41;;;13.89;50.97
62126;BME280;48112;53.282;6.150;2023-02-28T03:37:14;103308.69;;;13.89;50.99
62126;BME280;48112;53.282;6.150;2023-02-28T03:38:18;103313.59;;;13.87;50.60
62126;BME280;48112;53.282;6.150;2023-02-28T03:39:24;103316.00;;;13.88;50.82
62126;BME280;48112;53.282;6.150;2023-02-28T03:40:29;103317.91;;;13.88;51.03
62126;BME280;48112;53.282;6.150;2023-02-28T03:41:33;103317.91;;;13.88;50.63
62126;BME280;48112;53.282;6.150;2023-02-28T03:42:36;103315.19;;;13.88;50.82
62126;BME280;48112;53.282;6.150;2023-02-28T03:43:42;103320.63;;;13.88;50.96
62126;BME280;48112;53.282;6.150;2023-02-28T03:44:46;103324.97;;;13.89;50.60
62126;BME280;48112;53.282;6.150;2023-02-28T03:45:51;103322.25;;;13.89;50.96
62126;BME280;48112;53.282;6.150;2023-02-28T03:46:54;103315.19;;;13.88;50.66
62126;BME280;48112;53.282;6.150;2023-02-28T03:48:00;103320.63;;;13.88;50.92
62126;BME280;48112;53.282;6.150;2023-02-28T03:49:03;103316.84;;;13.89;50.44
62126;BME280;48112;53.282;6.150;2023-02-28T03:50:10;103312.47;;;13.88;50.61
62126;BME280;48112;53.282;6.150;2023-02-28T03:51:17;103309.78;;;13.88;50.69
62126;BME280;48112;53.282;6.150;2023-02-28T03:52:24;103309.78;;;13.88;50.96
62126;BME280;48112;53.282;6.150;2023-02-28T03:53:29;103309.78;;;13.88;50.71
62126;BME280;48112;53.282;6.150;2023-02-28T03:54:35;103315.19;;;13.88;50.87
62126;BME280;48112;53.282;6.150;2023-02-28T03:55:40;103310.59;;;13.88;50.67
62126;BME280;48112;53.282;6.150;2023-02-28T03:56:46;103319.53;;;13.89;50.58
62126;BME280;48112;53.282;6.150;2023-02-28T03:57:53;103320.63;;;13.88;50.63
62126;BME280;48112;53.282;6.150;2023-02-28T03:59:00;103310.59;;;13.88;50.53
62126;BME280;48112;53.282;6.150;2023-02-28T04:00:04;103313.31;;;13.88;50.66
62126;BME280;48112;53.282;6.150;2023-02-28T04:01:13;103316.00;;;13.88;50.74
62126;BME280;48112;53.282;6.150;2023-02-28T04:02:18;103309.78;;;13.88;50.98
62126;BME280;48112;53.282;6.150;2023-02-28T04:03:20;103309.78;;;13.88;51.01
62126;BME280;48112;53.282;6.150;2023-02-28T04:04:22;103315.19;;;13.88;51.08
62126;BME280;48112;53.282;6.150;2023-02-28T04:05:25;103310.59;;;13.88;50.67
62126;BME280;48112;53.282;6.150;2023-02-28T04:06:29;103312.47;;;13.88;50.76
62126;BME280;48112;53.282;6.150;2023-02-28T04:07:32;103314.41;;;13.87;51.10
62126;BME280;48112;53.282;6.150;2023-02-28T04:08:34;103311.41;;;13.89;50.60
62126;BME280;48112;53.282;6.150;2023-02-28T04:09:37;103309.78;;;13.88;51.00
62126;BME280;48112;53.282;6.150;2023-02-28T04:10:42;103314.41;;;13.87;50.87
62126;BME280;48112;53.282;6.150;2023-02-28T04:11:48;103316.00;;;13.88;51.11
62126;BME280;48112;53.282;6.150;2023-02-28T04:12:53;103317.91;;;13.88;50.62
62126;BME280;48112;53.282;6.150;2023-02-28T04:13:55;103315.19;;;13.88;50.56
62126;BME280;48112;53.282;6.150;2023-02-28T04:14:58;103320.63;;;13.88;50.66
62126;BME280;48112;53.282;6.150;2023-02-28T04:15:59;103315.19;;;13.88;51.03
62126;BME280;48112;53.282;6.150;2023-02-28T04:17:02;103323.34;;;13.88;51.14
62126;BME280;48112;53.282;6.150;2023-02-28T04:18:04;103312.47;;;13.88;51.08
62126;BME280;48112;53.282;6.150;2023-02-28T04:19:07;103316.00;;;13.88;50.82
62126;BME280;48112;53.282;6.150;2023-02-28T04:20:09;103322.25;;;13.89;50.92
62126;BME280;48112;53.282;6.150;2023-02-28T04:21:13;103313.31;;;13.88;51.13
62126;BME280;48112;53.282;6.150;2023-02-28T04:22:16;103316.00;;;13.88;50.68
62126;BME280;48112;53.282;6.150;2023-02-28T04:23:19;103320.63;;;13.88;50.82
62126;BME280;48112;53.282;6.150;2023-02-28T04:24:21;103315.19;;;13.88;50.64
62126;BME280;48112;53.282;6.150;2023-02-28T04:25:24;103312.47;;;13.88;50.71
62126;BME280;48112;53.282;6.150;2023-02-28T04:26:27;103312.47;;;13.88;50.71
62126;BME280;48112;53.282;6.150;2023-02-28T04:27:31;103312.47;;;13.88;50.56
62126;BME280;48112;53.282;6.150;2023-02-28T04:28:33;103318.72;;;13.88;51.06
62126;BME280;48112;53.282;6.150;2023-02-28T04:29:35;103310.59;;;13.88;51.11
62126;BME280;48112;53.282;6.150;2023-02-28T04:30:37;103315.19;;;13.88;50.88
62126;BME280;48112;53.282;6.150;2023-02-28T04:31:40;103307.88;;;13.88;50.94
62126;BME280;48112;53.282;6.150;2023-02-28T04:32:42;103309.78;;;13.88;51.08
62126;BME280;48112;53.282;6.150;2023-02-28T04:33:45;103315.19;;;13.88;50.64
62126;BME280;48112;53.282;6.150;2023-02-28T04:34:46;103311.41;;;13.89;51.08
62126;BME280;48112;53.282;6.150;2023-02-28T04:35:57;103310.59;;;13.88;50.69
62126;BME280;48112;53.282;6.150;2023-02-28T04:36:59;103307.06;;;13.88;50.82
62126;BME280;48112;53.282;6.150;2023-02-28T04:38:15;103313.31;;;13.88;50.64
62126;BME280;48112;53.282;6.150;2023-02-28T04:39:17;103312.47;;;13.88;51.16
62126;BME280;48112;53.282;6.150;2023-02-28T04:40:20;103307.88;;;13.88;51.20
62126;BME280;48112;53.282;6.150;2023-02-28T04:41:22;103309.78;;;13.88;51.10
62126;BME280;48112;53.282;6.150;2023-02-28T04:42:25;103305.16;;;13.88;50.71
62126;BME280;48112;53.282;6.150;2023-02-28T04:43:27;103312.47;;;13.88;50.67
62126;BME280;48112;53.282;6.150;2023-02-28T04:44:30;103316.84;;;13.89;50.95
62126;BME280;48112;53.282;6.150;2023-02-28T04:45:31;103307.88;;;13.88;50.90
62126;BME280;48112;53.282;6.150;2023-02-28T04:46:35;103301.63;;;13.88;50.76
62126;BME280;48112;53.282;6.150;2023-02-28T04:47:36;103309.00;;;13.87;50.59
62126;BME280;48112;53.282;6.150;2023-02-28T04:48:39;103307.06;;;13.88;51.06
62126;BME280;48112;53.282;6.150;2023-02-28T04:49:41;103312.47;;;13.88;51.10
62126;BME280;48112;53.282;6.150;2023-02-28T04:50:44;103315.19;;;13.88;51.22
62126;BME280;48112;53.282;6.150;2023-02-28T04:51:46;103310.59;;;13.88;50.98
62126;BME280;48112;53.282;6.150;2023-02-28T04:52:48;103315.19;;;13.88;51.09
62126;BME280;48112;53.282;6.150;2023-02-28T04:53:52;103313.31;;;13.88;51.15
62126;BME280;48112;53.282;6.150;2023-02-28T04:54:55;103316.00;;;13.88;51.07
62126;BME280;48112;53.282;6.150;2023-02-28T04:55:58;103316.84;;;13.89;50.83
62126;BME280;48112;53.282;6.150;2023-02-28T04:56:59;103321.44;;;13.88;50.58
62126;BME280;48112;53.282;6.150;2023-02-28T04:58:03;103315.19;;;13.88;51.10
62126;BME280;48112;53.282;6.150;2023-02-28T04:59:05;103318.44;;;13.90;50.79
62126;BME280;48112;53.282;6.150;2023-02-28T05:00:08;103326.88;;;13.88;50.80
62126;BME280;48112;53.282;6.150;2023-02-28T05:01:17;103322.25;;;13.89;50.77
62126;BME280;48112;53.282;6.150;2023-02-28T05:02:20;103326.06;;;13.88;50.95
62126;BME280;48112;53.282;6.150;2023-02-28T05:03:22;103321.44;;;13.88;51.15
62126;BME280;48112;53.282;6.150;2023-02-28T05:04:27;103321.44;;;13.88;51.27
62126;BME280;48112;53.282;6.150;2023-02-28T05:05:29;103321.44;;;13.88;51.11
62126;BME280;48112;53.282;6.150;2023-02-28T05:06:32;103317.63;;;13.89;51.21
62126;BME280;48112;53.282;6.150;2023-02-28T05:07:35;103317.91;;;13.88;51.13
62126;BME280;48112;53.282;6.150;2023-02-28T05:08:36;103315.19;;;13.88;50.75
62126;BME280;48112;53.282;6.150;2023-02-28T05:09:40;103322.25;;;13.89;51.00
62126;BME280;48112;53.282;6.150;2023-02-28T05:10:42;103321.44;;;13.88;51.13
62126;BME280;48112;53.282;6.150;2023-02-28T05:11:45;103327.69;;;13.89;51.07
62126;BME280;48112;53.282;6.150;2023-02-28T05:12:47;103326.06;;;13.88;51.13
62126;BME280;48112;53.282;6.150;2023-02-28T05:13:49;103326.06;;;13.88;51.03
62126;BME280;48112;53.282;6.150;2023-02-28T05:14:52;103326.88;;;13.88;50.92
62126;BME280;48112;53.282;6.150;2023-02-28T05:15:54;103317.91;;;13.88;51.18
62126;BME280;48112;53.282;6.150;2023-02-28T05:16:56;103331.50;;;13.88;50.84
62126;BME280;48112;53.282;6.150;2023-02-28T05:17:58;103322.25;;;13.89;51.16
62126;BME280;48112;53.282;6.150;2023-02-28T05:19:01;103326.06;;;13.88;51.17
62126;BME280;48112;53.282;6.150;2023-02-28T05:20:03;103322.25;;;13.89;51.06
62126;BME280;48112;53.282;6.150;2023-02-28T05:21:22;103322.25;;;13.89;51.13
62126;BME280;48112;53.282;6.150;2023-02-28T05:22:25;103323.34;;;13.88;51.18
62126;BME280;48112;53.282;6.150;2023-02-28T05:23:27;103323.34;;;13.88;50.90
62126;BME280;48112;53.282;6.150;2023-02-28T05:24:29;103328.78;;;13.88;50.63
62126;BME280;48112;53.282;6.150;2023-02-28T05:25:33;103324.16;;;13.88;51.14
62126;BME280;48112;53.282;6.150;2023-02-28T05:26:35;103331.19;;;13.89;51.15
62126;BME280;48112;53.282;6.150;2023-02-28T05:27:39;103327.69;;;13.89;51.05
62126;BME280;48112;53.282;6.150;2023-02-28T05:28:40;103326.88;;;13.88;51.13
62126;BME280;48112;53.282;6.150;2023-02-28T05:29:43;103322.25;;;13.89;50.90
62126;BME280;48112;53.282;6.150;2023-02-28T05:30:44;103326.06;;;13.88;50.86
62126;BME280;48112;53.282;6.150;2023-02-28T05:31:47;103326.88;;;13.88;51.13
62126;BME280;48112;53.282;6.150;2023-02-28T05:32:50;103329.59;;;13.88;51.29
62126;BME280;48112;53.282;6.150;2023-02-28T05:33:54;103327.69;;;13.89;51.39
62126;BME280;48112;53.282;6.150;2023-02-28T05:34:56;103321.44;;;13.88;50.97
62126;BME280;48112;53.282;6.150;2023-02-28T05:35:59;103322.25;;;13.89;51.14
62126;BME280;48112;53.282;6.150;2023-02-28T05:37:01;103323.03;;;13.89;51.20
62126;BME280;48112;53.282;6.150;2023-02-28T05:38:03;103328.47;;;13.89;51.06
62126;BME280;48112;53.282;6.150;2023-02-28T05:39:05;103327.69;;;13.89;51.25
62126;BME280;48112;53.282;6.150;2023-02-28T05:40:09;103327.69;;;13.89;51.15